sensor_id;sensor_type;location;lat;lon;timestamp;temperature;humidity
51637;DHT22;37713;53.254;6.460;2022-11-15T00:01:42;7.30;99.90
51637;DHT22;37713;53.254;6.460;2022-11-15T00:04:07;7.30;99.90
51637;DHT22;37713;53.254;6.460;2022-11-15T00:06:33;7.40;99.90
51637;DHT22;37713;53.254;6.460;2022-11-15T00:08:59;7.30;99.90
51637;DHT22;37713;53.254;6.460;2022-11-15T00:11:25;7.30;99.90
51637;DHT22;37713;53.254;6.460;2022-11-15T00:13:54;7.30;99.90
51637;DHT22;37713;53.254;6.460;2022-11-15T00:16:20;7.30;99.90
51637;DHT22;37713;53.254;6.460;2022-11-15T00:18:46;7.20;99.90
51637;DHT22;37713;53.254;6.460;2022-11-15T00:21:13;7.10;99.90
51637;DHT22;37713;53.254;6.460;2022-11-15T00:23:39;7.00;99.90
51637;DHT22;37713;53.254;6.460;2022-11-15T00:26:05;7.00;99.90
51637;DHT22;37713;53.254;6.460;2022-11-15T00:28:30;6.90;99.90
51637;DHT22;37713;53.254;6.460;2022-11-15T00:31:04;6.80;99.90
51637;DHT22;37713;53.254;6.460;2022-11-15T00:33:30;6.70;99.90
51637;DHT22;37713;53.254;6.460;2022-11-15T00:36:06;6.60;99.90
51637;DHT22;37713;53.254;6.460;2022-11-15T00:38:37;6.40;99.90
51637;DHT22;37713;53.254;6.460;2022-11-15T00:41:05;6.40;99.90
51637;DHT22;37713;53.254;6.460;2022-11-15T00:43:32;6.50;99.90
51637;DHT22;37713;53.254;6.460;2022-11-15T00:45:57;6.50;99.90
51637;DHT22;37713;53.254;6.460;2022-11-15T00:48:23;6.50;99.90
51637;DHT22;37713;53.254;6.460;2022-11-15T00:50:49;6.70;99.90
51637;DHT22;37713;53.254;6.460;2022-11-15T00:53:16;6.70;99.90
51637;DHT22;37713;53.254;6.460;2022-11-15T00:55:42;6.60;99.90
51637;DHT22;37713;53.254;6.460;2022-11-15T00:58:07;6.80;99.90
51637;DHT22;37713;53.254;6.460;2022-11-15T01:00:33;6.80;99.90
51637;DHT22;37713;53.254;6.460;2022-11-15T01:03:00;7.10;99.90
51637;DHT22;37713;53.254;6.460;2022-11-15T01:05:26;6.90;99.90
51637;DHT22;37713;53.254;6.460;2022-11-15T01:07:53;6.90;99.90
51637;DHT22;37713;53.254;6.460;2022-11-15T01:10:19;6.90;99.90
51637;DHT22;37713;53.254;6.460;2022-11-15T01:12:45;7.00;99.90
51637;DHT22;37713;53.254;6.460;2022-11-15T01:15:11;7.00;99.90
51637;DHT22;37713;53.254;6.460;2022-11-15T01:17:36;7.00;99.90
51637;DHT22;37713;53.254;6.460;2022-11-15T01:20:03;7.00;99.90
51637;DHT22;37713;53.254;6.460;2022-11-15T01:22:28;7.00;99.90
51637;DHT22;37713;53.254;6.460;2022-11-15T01:24:54;7.00;99.90
51637;DHT22;37713;53.254;6.460;2022-11-15T01:27:20;7.00;99.90
51637;DHT22;37713;53.254;6.460;2022-11-15T01:29:46;7.10;99.90
51637;DHT22;37713;53.254;6.460;2022-11-15T01:32:11;7.10;99.90
51637;DHT22;37713;53.254;6.460;2022-11-15T01:34:37;7.10;99.90
51637;DHT22;37713;53.254;6.460;2022-11-15T01:37:03;7.00;99.90
51637;DHT22;37713;53.254;6.460;2022-11-15T01:39:28;7.00;99.90
51637;DHT22;37713;53.254;6.460;2022-11-15T01:41:54;7.10;99.90
51637;DHT22;37713;53.254;6.460;2022-11-15T01:44:51;7.10;99.90
51637;DHT22;37713;53.254;6.460;2022-11-15T01:47:23;7.00;99.90
51637;DHT22;37713;53.254;6.460;2022-11-15T01:50:00;7.00;99.90
51637;DHT22;37713;53.254;6.460;2022-11-15T01:52:29;7.00;99.90
51637;DHT22;37713;53.254;6.460;2022-11-15T01:55:02;7.00;99.90
51637;DHT22;37713;53.254;6.460;2022-11-15T01:57:29;7.00;99.90
51637;DHT22;37713;53.254;6.460;2022-11-15T01:59:55;7.00;99.90
51637;DHT22;37713;53.254;6.460;2022-11-15T02:02:21;7.00;99.90
51637;DHT22;37713;53.254;6.460;2022-11-15T02:04:47;7.00;99.90
51637;DHT22;37713;53.254;6.460;2022-11-15T02:07:18;7.00;99.90
51637;DHT22;37713;53.254;6.460;2022-11-15T02:09:45;6.90;99.90
51637;DHT22;37713;53.254;6.460;2022-11-15T02:12:13;7.00;99.90
51637;DHT22;37713;53.254;6.460;2022-11-15T02:14:43;7.00;99.90
51637;DHT22;37713;53.254;6.460;2022-11-15T02:23:04;6.90;99.90
51637;DHT22;37713;53.254;6.460;2022-11-15T02:32:39;6.90;99.90
51637;DHT22;37713;53.254;6.460;2022-11-15T02:43:24;6.90;99.90
51637;DHT22;37713;53.254;6.460;2022-11-15T02:46:28;6.90;99.90
51637;DHT22;37713;53.254;6.460;2022-11-15T02:49:15;6.90;99.90
51637;DHT22;37713;53.254;6.460;2022-11-15T02:51:44;6.90;99.90
51637;DHT22;37713;53.254;6.460;2022-11-15T02:54:18;6.90;99.90
51637;DHT22;37713;53.254;6.460;2022-11-15T02:56:45;6.90;99.90
51637;DHT22;37713;53.254;6.460;2022-11-15T03:04:34;6.90;99.90
51637;DHT22;37713;53.254;6.460;2022-11-15T03:07:28;7.00;99.90
51637;DHT22;37713;53.254;6.460;2022-11-15T03:09:57;6.90;99.90
51637;DHT22;37713;53.254;6.460;2022-11-15T03:12:44;6.90;99.90
51637;DHT22;37713;53.254;6.460;2022-11-15T03:15:18;7.00;99.90
51637;DHT22;37713;53.254;6.460;2022-11-15T03:17:51;6.90;99.90
51637;DHT22;37713;53.254;6.460;2022-11-15T03:20:19;6.90;99.90
51637;DHT22;37713;53.254;6.460;2022-11-15T03:22:46;6.90;99.90
51637;DHT22;37713;53.254;6.460;2022-11-15T03:25:18;6.90;99.90
51637;DHT22;37713;53.254;6.460;2022-11-15T03:27:50;6.90;99.90
51637;DHT22;37713;53.254;6.460;2022-11-15T03:30:17;7.00;99.90
51637;DHT22;37713;53.254;6.460;2022-11-15T03:32:58;6.90;99.90
51637;DHT22;37713;53.254;6.460;2022-11-15T03:35:27;6.90;99.90
51637;DHT22;37713;53.254;6.460;2022-11-15T03:40:41;6.90;99.90
51637;DHT22;37713;53.254;6.460;2022-11-15T03:46:01;6.90;99.90
51637;DHT22;37713;53.254;6.460;2022-11-15T03:48:30;7.00;99.90
51637;DHT22;37713;53.254;6.460;2022-11-15T03:50:59;6.90;99.90
51637;DHT22;37713;53.254;6.460;2022-11-15T03:53:25;7.10;99.90
51637;DHT22;37713;53.254;6.460;2022-11-15T03:55:50;7.00;99.90
51637;DHT22;37713;53.254;6.460;2022-11-15T03:58:16;7.00;99.90
51637;DHT22;37713;53.254;6.460;2022-11-15T04:00:42;7.00;99.90
51637;DHT22;37713;53.254;6.460;2022-11-15T04:03:08;7.10;99.90
51637;DHT22;37713;53.254;6.460;2022-11-15T04:05:33;7.10;99.90
51637;DHT22;37713;53.254;6.460;2022-11-15T04:07:59;7.10;99.90
51637;DHT22;37713;53.254;6.460;2022-11-15T04:10:25;7.10;99.90
51637;DHT22;37713;53.254;6.460;2022-11-15T04:12:51;7.10;99.90
51637;DHT22;37713;53.254;6.460;2022-11-15T04:15:19;7.20;99.90
51637;DHT22;37713;53.254;6.460;2022-11-15T04:17:53;7.10;99.90
51637;DHT22;37713;53.254;6.460;2022-11-15T04:20:24;7.10;99.90
51637;DHT22;37713;53.254;6.460;2022-11-15T04:23:23;7.10;99.90
51637;DHT22;37713;53.254;6.460;2022-11-15T04:26:14;7.20;99.90
51637;DHT22;37713;53.254;6.460;2022-11-15T04:28:41;7.20;99.90
51637;DHT22;37713;53.254;6.460;2022-11-15T04:31:25;7.20;99.90
51637;DHT22;37713;53.254;6.460;2022-11-15T04:33:51;7.30;99.90
51637;DHT22;37713;53.254;6.460;2022-11-15T04:36:17;7.30;99.90
51637;DHT22;37713;53.254;6.460;2022-11-15T04:39:01;7.20;99.90
51637;DHT22;37713;53.254;6.460;2022-11-15T04:41:27;7.30;99.90
51637;DHT22;37713;53.254;6.460;2022-11-15T04:43:54;7.40;99.90
51637;DHT22;37713;53.254;6.460;2022-11-15T04:46:20;7.30;99.90
51637;DHT22;37713;53.254;6.460;2022-11-15T04:48:46;7.30;99.90
51637;DHT22;37713;53.254;6.460;2022-11-15T04:51:12;7.40;99.90
51637;DHT22;37713;53.254;6.460;2022-11-15T04:53:37;7.50;99.90
51637;DHT22;37713;53.254;6.460;2022-11-15T04:56:03;7.30;99.90
51637;DHT22;37713;53.254;6.460;2022-11-15T04:58:29;7.40;99.90
51637;DHT22;37713;53.254;6.460;2022-11-15T05:00:55;7.40;99.90
51637;DHT22;37713;53.254;6.460;2022-11-15T05:03:21;7.60;99.90
51637;DHT22;37713;53.254;6.460;2022-11-15T05:06:06;7.60;99.90
51637;DHT22;37713;53.254;6.460;2022-11-15T05:08:32;7.60;99.90
51637;DHT22;37713;53.254;6.460;2022-11-15T05:10:58;7.70;99.90
51637;DHT22;37713;53.254;6.460;2022-11-15T05:13:23;7.70;99.90
51637;DHT22;37713;53.254;6.460;2022-11-15T05:15:49;7.70;99.90
51637;DHT22;37713;53.254;6.460;2022-11-15T05:18:15;7.60;99.90
51637;DHT22;37713;53.254;6.460;2022-11-15T05:20:40;7.80;99.90
51637;DHT22;37713;53.254;6.460;2022-11-15T05:23:06;7.70;99.90
51637;DHT22;37713;53.254;6.460;2022-11-15T05:25:32;7.70;99.90
51637;DHT22;37713;53.254;6.460;2022-11-15T05:27:58;7.80;99.90
51637;DHT22;37713;53.254;6.460;2022-11-15T05:30:24;7.90;99.90
51637;DHT22;37713;53.254;6.460;2022-11-15T05:32:50;7.80;99.90
51637;DHT22;37713;53.254;6.460;2022-11-15T05:35:24;8.00;99.90
51637;DHT22;37713;53.254;6.460;2022-11-15T05:37:51;8.00;99.90
51637;DHT22;37713;53.254;6.460;2022-11-15T05:40:17;8.00;99.90
51637;DHT22;37713;53.254;6.460;2022-11-15T05:42:43;8.00;99.90
51637;DHT22;37713;53.254;6.460;2022-11-15T05:45:09;8.00;99.90
51637;DHT22;37713;53.254;6.460;2022-11-15T05:47:36;8.00;99.90
51637;DHT22;37713;53.254;6.460;2022-11-15T05:50:03;8.20;99.90
51637;DHT22;37713;53.254;6.460;2022-11-15T05:52:31;8.20;99.90
51637;DHT22;37713;53.254;6.460;2022-11-15T05:55:00;8.20;99.90
51637;DHT22;37713;53.254;6.460;2022-11-15T05:57:27;8.10;99.90
51637;DHT22;37713;53.254;6.460;2022-11-15T05:59:54;8.10;99.90
51637;DHT22;37713;53.254;6.460;2022-11-15T06:02:19;8.20;99.90
51637;DHT22;37713;53.254;6.460;2022-11-15T06:04:45;8.10;99.90
51637;DHT22;37713;53.254;6.460;2022-11-15T06:07:11;8.10;99.90
51637;DHT22;37713;53.254;6.460;2022-11-15T06:09:36;8.30;99.90
51637;DHT22;37713;53.254;6.460;2022-11-15T06:12:02;8.20;99.90
51637;DHT22;37713;53.254;6.460;2022-11-15T06:14:28;8.30;99.90
51637;DHT22;37713;53.254;6.460;2022-11-15T06:16:54;8.20;99.90
51637;DHT22;37713;53.254;6.460;2022-11-15T06:19:19;8.30;99.90
51637;DHT22;37713;53.254;6.460;2022-11-15T06:21:45;8.40;99.90
51637;DHT22;37713;53.254;6.460;2022-11-15T06:24:11;8.20;99.90
51637;DHT22;37713;53.254;6.460;2022-11-15T06:26:37;8.30;99.90
51637;DHT22;37713;53.254;6.460;2022-11-15T06:29:04;8.40;99.90
51637;DHT22;37713;53.254;6.460;2022-11-15T06:31:30;8.40;99.90
51637;DHT22;37713;53.254;6.460;2022-11-15T06:33:56;8.30;99.90
51637;DHT22;37713;53.254;6.460;2022-11-15T06:36:21;8.40;99.90
51637;DHT22;37713;53.254;6.460;2022-11-15T06:38:47;8.60;99.90
51637;DHT22;37713;53.254;6.460;2022-11-15T06:41:13;8.40;99.90
51637;DHT22;37713;53.254;6.460;2022-11-15T06:43:40;8.40;99.90
51637;DHT22;37713;53.254;6.460;2022-11-15T06:46:06;8.40;99.90
51637;DHT22;37713;53.254;6.460;2022-11-15T06:48:33;8.50;99.90
51637;DHT22;37713;53.254;6.460;2022-11-15T06:51:01;8.50;99.90
51637;DHT22;37713;53.254;6.460;2022-11-15T06:53:28;8.80;99.90
51637;DHT22;37713;53.254;6.460;2022-11-15T06:55:57;8.80;99.90
51637;DHT22;37713;53.254;6.460;2022-11-15T06:58:23;8.60;99.90
51637;DHT22;37713;53.254;6.460;2022-11-15T07:00:49;8.90;99.90
51637;DHT22;37713;53.254;6.460;2022-11-15T07:03:15;9.00;99.90
51637;DHT22;37713;53.254;6.460;2022-11-15T07:05:40;8.70;99.90
51637;DHT22;37713;53.254;6.460;2022-11-15T07:08:06;8.90;99.90
51637;DHT22;37713;53.254;6.460;2022-11-15T07:10:32;9.10;99.90
51637;DHT22;37713;53.254;6.460;2022-11-15T07:12:57;9.00;99.90
51637;DHT22;37713;53.254;6.460;2022-11-15T07:15:25;8.90;99.90
51637;DHT22;37713;53.254;6.460;2022-11-15T07:17:51;8.90;99.90
51637;DHT22;37713;53.254;6.460;2022-11-15T07:20:17;8.90;99.90
51637;DHT22;37713;53.254;6.460;2022-11-15T07:22:43;9.20;99.90
51637;DHT22;37713;53.254;6.460;2022-11-15T07:25:12;9.00;99.90
51637;DHT22;37713;53.254;6.460;2022-11-15T07:27:38;9.30;99.90
51637;DHT22;37713;53.254;6.460;2022-11-15T07:30:04;9.10;99.90
51637;DHT22;37713;53.254;6.460;2022-11-15T07:32:30;9.30;99.90
51637;DHT22;37713;53.254;6.460;2022-11-15T07:34:56;9.40;99.90
51637;DHT22;37713;53.254;6.460;2022-11-15T07:37:22;9.30;99.90
51637;DHT22;37713;53.254;6.460;2022-11-15T07:39:48;9.50;99.90
51637;DHT22;37713;53.254;6.460;2022-11-15T07:42:14;9.50;99.90
51637;DHT22;37713;53.254;6.460;2022-11-15T07:44:58;9.40;99.90
51637;DHT22;37713;53.254;6.460;2022-11-15T07:47:24;9.40;99.90
51637;DHT22;37713;53.254;6.460;2022-11-15T07:49:49;9.50;99.90
51637;DHT22;37713;53.254;6.460;2022-11-15T07:52:15;9.50;99.90
51637;DHT22;37713;53.254;6.460;2022-11-15T07:54:41;9.40;99.90
51637;DHT22;37713;53.254;6.460;2022-11-15T07:57:07;9.40;99.90
51637;DHT22;37713;53.254;6.460;2022-11-15T07:59:34;9.50;99.90
51637;DHT22;37713;53.254;6.460;2022-11-15T08:02:03;9.60;99.90
51637;DHT22;37713;53.254;6.460;2022-11-15T08:04:29;9.70;99.90
51637;DHT22;37713;53.254;6.460;2022-11-15T08:06:55;9.90;99.90
51637;DHT22;37713;53.254;6.460;2022-11-15T08:09:20;9.70;99.90
51637;DHT22;37713;53.254;6.460;2022-11-15T08:11:46;9.60;99.90
51637;DHT22;37713;53.254;6.460;2022-11-15T08:14:12;9.70;99.90
51637;DHT22;37713;53.254;6.460;2022-11-15T08:16:38;10.00;99.90
51637;DHT22;37713;53.254;6.460;2022-11-15T08:19:03;9.80;99.90
51637;DHT22;37713;53.254;6.460;2022-11-15T08:21:29;10.00;99.90
51637;DHT22;37713;53.254;6.460;2022-11-15T08:23:55;9.80;99.90
51637;DHT22;37713;53.254;6.460;2022-11-15T08:26:21;10.10;99.90
51637;DHT22;37713;53.254;6.460;2022-11-15T08:28:47;10.10;99.90
51637;DHT22;37713;53.254;6.460;2022-11-15T08:31:17;9.90;99.90
51637;DHT22;37713;53.254;6.460;2022-11-15T08:33:44;10.10;99.90
51637;DHT22;37713;53.254;6.460;2022-11-15T08:36:16;10.20;99.90
51637;DHT22;37713;53.254;6.460;2022-11-15T08:38:42;10.30;99.90
51637;DHT22;37713;53.254;6.460;2022-11-15T08:41:16;10.40;99.90
51637;DHT22;37713;53.254;6.460;2022-11-15T08:43:44;10.10;99.90
51637;DHT22;37713;53.254;6.460;2022-11-15T08:46:13;10.50;99.90
51637;DHT22;37713;53.254;6.460;2022-11-15T08:48:39;10.50;99.90
51637;DHT22;37713;53.254;6.460;2022-11-15T08:51:05;10.40;99.90
51637;DHT22;37713;53.254;6.460;2022-11-15T08:53:31;10.50;99.90
51637;DHT22;37713;53.254;6.460;2022-11-15T08:55:57;10.70;99.90
51637;DHT22;37713;53.254;6.460;2022-11-15T08:58:22;10.40;99.90
51637;DHT22;37713;53.254;6.460;2022-11-15T09:00:48;10.50;99.90
51637;DHT22;37713;53.254;6.460;2022-11-15T09:03:14;10.50;99.90
51637;DHT22;37713;53.254;6.460;2022-11-15T09:05:40;10.60;99.90
51637;DHT22;37713;53.254;6.460;2022-11-15T09:08:06;10.60;99.90
51637;DHT22;37713;53.254;6.460;2022-11-15T09:10:32;10.80;99.90
51637;DHT22;37713;53.254;6.460;2022-11-15T09:12:58;10.90;99.90
51637;DHT22;37713;53.254;6.460;2022-11-15T09:15:23;10.70;99.90
51637;DHT22;37713;53.254;6.460;2022-11-15T09:17:49;10.60;99.90
51637;DHT22;37713;53.254;6.460;2022-11-15T09:20:15;10.80;99.90
51637;DHT22;37713;53.254;6.460;2022-11-15T09:22:41;10.80;99.90
51637;DHT22;37713;53.254;6.460;2022-11-15T09:25:07;10.80;99.90
51637;DHT22;37713;53.254;6.460;2022-11-15T09:27:33;10.90;99.90
51637;DHT22;37713;53.254;6.460;2022-11-15T09:29:59;11.00;99.90
51637;DHT22;37713;53.254;6.460;2022-11-15T09:32:28;11.10;99.90
51637;DHT22;37713;53.254;6.460;2022-11-15T09:34:55;11.00;99.90
51637;DHT22;37713;53.254;6.460;2022-11-15T09:37:21;11.00;99.90
51637;DHT22;37713;53.254;6.460;2022-11-15T09:39:47;11.00;99.90
51637;DHT22;37713;53.254;6.460;2022-11-15T09:50:49;11.10;99.90
51637;DHT22;37713;53.254;6.460;2022-11-15T09:53:25;11.00;99.90
51637;DHT22;37713;53.254;6.460;2022-11-15T09:56:00;11.10;99.90
51637;DHT22;37713;53.254;6.460;2022-11-15T10:01:51;11.30;99.90
51637;DHT22;37713;53.254;6.460;2022-11-15T10:04:21;11.40;99.90
51637;DHT22;37713;53.254;6.460;2022-11-15T10:07:05;11.50;99.90
51637;DHT22;37713;53.254;6.460;2022-11-15T10:10:02;11.50;99.90
51637;DHT22;37713;53.254;6.460;2022-11-15T10:12:30;11.40;99.90
51637;DHT22;37713;53.254;6.460;2022-11-15T10:15:13;11.50;99.90
51637;DHT22;37713;53.254;6.460;2022-11-15T10:20:28;11.50;99.90
51637;DHT22;37713;53.254;6.460;2022-11-15T10:23:05;11.60;99.90
51637;DHT22;37713;53.254;6.460;2022-11-15T10:25:35;11.70;99.90
51637;DHT22;37713;53.254;6.460;2022-11-15T10:28:14;11.60;99.90
51637;DHT22;37713;53.254;6.460;2022-11-15T10:30:46;11.60;99.90
51637;DHT22;37713;53.254;6.460;2022-11-15T10:41:42;11.70;99.90
51637;DHT22;37713;53.254;6.460;2022-11-15T10:46:34;11.80;99.90
51637;DHT22;37713;53.254;6.460;2022-11-15T10:51:52;11.80;99.90
51637;DHT22;37713;53.254;6.460;2022-11-15T10:54:36;11.90;99.90
51637;DHT22;37713;53.254;6.460;2022-11-15T10:57:32;12.00;99.90
51637;DHT22;37713;53.254;6.460;2022-11-15T11:00:06;12.00;99.90
51637;DHT22;37713;53.254;6.460;2022-11-15T11:02:34;11.90;99.90
51637;DHT22;37713;53.254;6.460;2022-11-15T11:05:02;11.90;99.90
51637;DHT22;37713;53.254;6.460;2022-11-15T11:07:31;11.90;99.90
51637;DHT22;37713;53.254;6.460;2022-11-15T11:12:31;11.90;99.90
51637;DHT22;37713;53.254;6.460;2022-11-15T11:14:58;12.10;99.90
51637;DHT22;37713;53.254;6.460;2022-11-15T11:18:21;12.10;99.90
51637;DHT22;37713;53.254;6.460;2022-11-15T11:20:45;12.10;99.90
51637;DHT22;37713;53.254;6.460;2022-11-15T11:23:33;12.10;99.90
51637;DHT22;37713;53.254;6.460;2022-11-15T11:26:38;12.20;99.90
51637;DHT22;37713;53.254;6.460;2022-11-15T11:40:22;12.40;99.90
51637;DHT22;37713;53.254;6.460;2022-11-15T11:45:44;12.50;99.90
51637;DHT22;37713;53.254;6.460;2022-11-15T11:51:46;12.70;99.90
51637;DHT22;37713;53.254;6.460;2022-11-15T11:54:20;12.90;99.90
51637;DHT22;37713;53.254;6.460;2022-11-15T11:56:48;12.90;99.90
51637;DHT22;37713;53.254;6.460;2022-11-15T11:59:42;12.90;99.90
51637;DHT22;37713;53.254;6.460;2022-11-15T12:02:19;12.90;99.90
51637;DHT22;37713;53.254;6.460;2022-11-15T12:04:51;12.70;99.90
51637;DHT22;37713;53.254;6.460;2022-11-15T12:07:31;12.60;99.90
51637;DHT22;37713;53.254;6.460;2022-11-15T12:10:22;12.50;99.90
51637;DHT22;37713;53.254;6.460;2022-11-15T12:13:28;12.40;99.90
51637;DHT22;37713;53.254;6.460;2022-11-15T12:18:41;12.30;99.90
51637;DHT22;37713;53.254;6.460;2022-11-15T12:24:06;12.40;99.90
51637;DHT22;37713;53.254;6.460;2022-11-15T12:27:00;12.30;99.90
51637;DHT22;37713;53.254;6.460;2022-11-15T12:29:43;12.40;99.90
51637;DHT22;37713;53.254;6.460;2022-11-15T12:32:31;12.30;99.90
51637;DHT22;37713;53.254;6.460;2022-11-15T12:34:59;12.30;99.90
51637;DHT22;37713;53.254;6.460;2022-11-15T12:42:44;12.00;99.90
51637;DHT22;37713;53.254;6.460;2022-11-15T12:45:34;12.00;99.90
51637;DHT22;37713;53.254;6.460;2022-11-15T12:50:54;12.00;99.90
51637;DHT22;37713;53.254;6.460;2022-11-15T12:58:52;12.10;99.90
51637;DHT22;37713;53.254;6.460;2022-11-15T13:06:49;12.10;99.90
51637;DHT22;37713;53.254;6.460;2022-11-15T13:15:07;12.40;99.90
51637;DHT22;37713;53.254;6.460;2022-11-15T13:17:51;12.40;99.90
51637;DHT22;37713;53.254;6.460;2022-11-15T13:20:30;12.50;99.90
51637;DHT22;37713;53.254;6.460;2022-11-15T13:23:12;12.50;99.90
51637;DHT22;37713;53.254;6.460;2022-11-15T13:33:50;12.20;99.90
51637;DHT22;37713;53.254;6.460;2022-11-15T13:36:22;12.20;99.90
51637;DHT22;37713;53.254;6.460;2022-11-15T13:39:41;12.10;99.90
51637;DHT22;37713;53.254;6.460;2022-11-15T13:41:48;12.10;99.90
51637;DHT22;37713;53.254;6.460;2022-11-15T13:44:29;12.10;99.90
51637;DHT22;37713;53.254;6.460;2022-11-15T13:47:15;12.10;99.90
51637;DHT22;37713;53.254;6.460;2022-11-15T13:49:41;12.10;99.90
51637;DHT22;37713;53.254;6.460;2022-11-15T13:52:11;12.00;99.90
51637;DHT22;37713;53.254;6.460;2022-11-15T13:57:29;11.90;99.90
51637;DHT22;37713;53.254;6.460;2022-11-15T14:00:23;11.90;99.90
51637;DHT22;37713;53.254;6.460;2022-11-15T14:02:49;11.90;99.90
51637;DHT22;37713;53.254;6.460;2022-11-15T14:05:19;11.90;99.90
51637;DHT22;37713;53.254;6.460;2022-11-15T14:08:11;11.80;99.90
51637;DHT22;37713;53.254;6.460;2022-11-15T14:10:38;11.70;99.90
51637;DHT22;37713;53.254;6.460;2022-11-15T14:13:25;11.60;99.90
51637;DHT22;37713;53.254;6.460;2022-11-15T14:15:51;11.60;99.90
51637;DHT22;37713;53.254;6.460;2022-11-15T14:18:46;11.60;99.90
51637;DHT22;37713;53.254;6.460;2022-11-15T14:21:13;11.50;99.90
51637;DHT22;37713;53.254;6.460;2022-11-15T14:23:40;11.40;99.90
51637;DHT22;37713;53.254;6.460;2022-11-15T14:26:10;11.40;99.90
51637;DHT22;37713;53.254;6.460;2022-11-15T14:28:37;11.30;99.90
51637;DHT22;37713;53.254;6.460;2022-11-15T14:31:11;11.30;99.90
51637;DHT22;37713;53.254;6.460;2022-11-15T14:33:38;11.20;99.90
51637;DHT22;37713;53.254;6.460;2022-11-15T14:36:10;11.20;99.90
51637;DHT22;37713;53.254;6.460;2022-11-15T14:38:36;11.10;99.90
51637;DHT22;37713;53.254;6.460;2022-11-15T14:41:02;11.10;99.90
51637;DHT22;37713;53.254;6.460;2022-11-15T14:43:28;11.00;99.90
51637;DHT22;37713;53.254;6.460;2022-11-15T14:45:54;10.90;99.90
51637;DHT22;37713;53.254;6.460;2022-11-15T14:48:19;10.90;99.90
51637;DHT22;37713;53.254;6.460;2022-11-15T14:50:45;10.80;99.90
51637;DHT22;37713;53.254;6.460;2022-11-15T14:53:16;10.80;99.90
51637;DHT22;37713;53.254;6.460;2022-11-15T14:55:42;10.70;99.90
51637;DHT22;37713;53.254;6.460;2022-11-15T14:58:08;10.70;99.90
51637;DHT22;37713;53.254;6.460;2022-11-15T15:00:39;10.70;99.90
51637;DHT22;37713;53.254;6.460;2022-11-15T15:03:06;10.60;99.90
51637;DHT22;37713;53.254;6.460;2022-11-15T15:05:40;10.60;99.90
51637;DHT22;37713;53.254;6.460;2022-11-15T15:08:06;10.50;99.90
51637;DHT22;37713;53.254;6.460;2022-11-15T15:10:43;10.50;99.90
51637;DHT22;37713;53.254;6.460;2022-11-15T15:13:21;10.40;99.90
51637;DHT22;37713;53.254;6.460;2022-11-15T15:15:48;10.40;99.90
51637;DHT22;37713;53.254;6.460;2022-11-15T15:18:14;10.30;99.90
51637;DHT22;37713;53.254;6.460;2022-11-15T15:20:42;10.30;99.90
51637;DHT22;37713;53.254;6.460;2022-11-15T15:23:19;10.20;99.90
51637;DHT22;37713;53.254;6.460;2022-11-15T15:25:46;10.10;99.90
51637;DHT22;37713;53.254;6.460;2022-11-15T15:28:13;10.10;99.90
51637;DHT22;37713;53.254;6.460;2022-11-15T15:30:39;10.00;99.90
51637;DHT22;37713;53.254;6.460;2022-11-15T15:33:05;10.00;99.90
51637;DHT22;37713;53.254;6.460;2022-11-15T15:35:33;9.90;99.90
51637;DHT22;37713;53.254;6.460;2022-11-15T15:38:00;9.80;99.90
51637;DHT22;37713;53.254;6.460;2022-11-15T15:40:28;9.70;99.90
51637;DHT22;37713;53.254;6.460;2022-11-15T15:42:54;9.60;99.90
51637;DHT22;37713;53.254;6.460;2022-11-15T15:45:20;9.60;99.90
51637;DHT22;37713;53.254;6.460;2022-11-15T15:47:46;9.50;99.90
51637;DHT22;37713;53.254;6.460;2022-11-15T15:50:25;9.40;99.90
51637;DHT22;37713;53.254;6.460;2022-11-15T15:52:53;9.40;99.90
51637;DHT22;37713;53.254;6.460;2022-11-15T15:55:20;9.40;99.90
51637;DHT22;37713;53.254;6.460;2022-11-15T15:57:46;9.50;99.90
51637;DHT22;37713;53.254;6.460;2022-11-15T16:00:12;9.50;99.90
51637;DHT22;37713;53.254;6.460;2022-11-15T16:02:39;9.50;99.90
51637;DHT22;37713;53.254;6.460;2022-11-15T16:05:05;9.50;99.90
51637;DHT22;37713;53.254;6.460;2022-11-15T16:07:31;9.50;99.90
51637;DHT22;37713;53.254;6.460;2022-11-15T16:09:57;9.40;99.90
51637;DHT22;37713;53.254;6.460;2022-11-15T16:12:30;9.40;99.90
51637;DHT22;37713;53.254;6.460;2022-11-15T16:14:56;9.40;99.90
51637;DHT22;37713;53.254;6.460;2022-11-15T16:17:25;9.40;99.90
51637;DHT22;37713;53.254;6.460;2022-11-15T16:19:51;9.40;99.90
51637;DHT22;37713;53.254;6.460;2022-11-15T16:22:17;9.30;99.90
51637;DHT22;37713;53.254;6.460;2022-11-15T16:24:43;9.30;99.90
51637;DHT22;37713;53.254;6.460;2022-11-15T16:27:17;9.30;99.90
51637;DHT22;37713;53.254;6.460;2022-11-15T16:29:44;9.30;99.90
51637;DHT22;37713;53.254;6.460;2022-11-15T16:32:10;9.30;99.90
51637;DHT22;37713;53.254;6.460;2022-11-15T16:34:36;9.30;99.90
51637;DHT22;37713;53.254;6.460;2022-11-15T16:37:02;9.30;99.90
51637;DHT22;37713;53.254;6.460;2022-11-15T16:39:28;9.30;99.90
51637;DHT22;37713;53.254;6.460;2022-11-15T16:41:59;9.20;99.90
51637;DHT22;37713;53.254;6.460;2022-11-15T16:44:25;9.20;99.90
51637;DHT22;37713;53.254;6.460;2022-11-15T16:46:51;9.30;99.90
51637;DHT22;37713;53.254;6.460;2022-11-15T16:49:19;9.30;99.90
51637;DHT22;37713;53.254;6.460;2022-11-15T16:51:46;9.40;99.90
51637;DHT22;37713;53.254;6.460;2022-11-15T16:54:12;9.40;99.90
51637;DHT22;37713;53.254;6.460;2022-11-15T16:56:38;9.50;99.90
51637;DHT22;37713;53.254;6.460;2022-11-15T16:59:05;9.60;99.90
51637;DHT22;37713;53.254;6.460;2022-11-15T17:01:32;9.60;99.90
51637;DHT22;37713;53.254;6.460;2022-11-15T17:04:00;9.70;99.90
51637;DHT22;37713;53.254;6.460;2022-11-15T17:06:41;9.70;99.90
51637;DHT22;37713;53.254;6.460;2022-11-15T17:09:13;9.80;99.90
51637;DHT22;37713;53.254;6.460;2022-11-15T17:11:40;9.80;99.90
51637;DHT22;37713;53.254;6.460;2022-11-15T17:14:05;9.80;99.90
51637;DHT22;37713;53.254;6.460;2022-11-15T17:16:31;9.90;99.90
51637;DHT22;37713;53.254;6.460;2022-11-15T17:18:58;9.90;99.90
51637;DHT22;37713;53.254;6.460;2022-11-15T17:21:24;9.90;99.90
51637;DHT22;37713;53.254;6.460;2022-11-15T17:23:58;9.90;99.90
51637;DHT22;37713;53.254;6.460;2022-11-15T17:26:24;10.00;99.90
51637;DHT22;37713;53.254;6.460;2022-11-15T17:28:54;10.00;99.90
51637;DHT22;37713;53.254;6.460;2022-11-15T17:31:20;10.00;99.90
51637;DHT22;37713;53.254;6.460;2022-11-15T17:33:46;10.00;99.90
51637;DHT22;37713;53.254;6.460;2022-11-15T17:36:12;10.00;99.90
51637;DHT22;37713;53.254;6.460;2022-11-15T17:38:40;10.00;99.90
51637;DHT22;37713;53.254;6.460;2022-11-15T17:41:11;10.00;99.90
51637;DHT22;37713;53.254;6.460;2022-11-15T17:43:37;10.00;99.90
51637;DHT22;37713;53.254;6.460;2022-11-15T17:46:05;10.00;99.90
51637;DHT22;37713;53.254;6.460;2022-11-15T17:48:31;10.00;99.90
51637;DHT22;37713;53.254;6.460;2022-11-15T17:51:12;10.00;99.90
51637;DHT22;37713;53.254;6.460;2022-11-15T17:53:40;10.00;99.90
51637;DHT22;37713;53.254;6.460;2022-11-15T17:58:34;10.00;99.90
51637;DHT22;37713;53.254;6.460;2022-11-15T18:01:21;10.00;99.90